Atmautluak, Alaska
Current Conditions -  °F | °C
As of 8:53 AM on Thursday 27 Nov 2014 (Local Time) from PABE Reporting Station
Overcast Overcast  
Wind Chill: 21°   Ceiling: 4000
Heat Index: 29°   Visibility: 10mi
Dew Point: 24°   Wind: 8mph
Humidity: 82%   Direction: 90°E
Pressure: 30.04"   Gusts: NA
Location:  60.7494°N, 161.727°W
Report Text: PABE 271753Z 09007KT 10SM OVC040 M02/M04 A3004 RMK AO2 SLP173 T10171044 11017 21028 56016
Loading
Personal Weather Stations






























Interactive Weather Map New forecast layout! Learn more

10-Day Weather Forecast

Advertisements
Track Severe Weather on mobile